sensor_id;sensor_type;location;lat;lon;timestamp;P1;durP1;ratioP1;P2;durP2;ratioP2
56267;SDS011;42175;46.930;9.532;2023-06-10T00:00:42;7.85;;;6.60;;
56267;SDS011;42175;46.930;9.532;2023-06-10T00:03:09;7.22;;;6.18;;
56267;SDS011;42175;46.930;9.532;2023-06-10T00:05:35;8.02;;;6.45;;
56267;SDS011;42175;46.930;9.532;2023-06-10T00:08:03;8.20;;;6.57;;
56267;SDS011;42175;46.930;9.532;2023-06-10T00:10:35;7.30;;;6.22;;
56267;SDS011;42175;46.930;9.532;2023-06-10T00:13:05;6.82;;;5.90;;
56267;SDS011;42175;46.930;9.532;2023-06-10T00:15:35;7.60;;;6.60;;
56267;SDS011;42175;46.930;9.532;2023-06-10T00:18:00;7.10;;;6.40;;
56267;SDS011;42175;46.930;9.532;2023-06-10T00:20:27;9.73;;;6.43;;
56267;SDS011;42175;46.930;9.532;2023-06-10T00:22:53;13.10;;;6.57;;
56267;SDS011;42175;46.930;9.532;2023-06-10T00:25:18;8.48;;;6.80;;
56267;SDS011;42175;46.930;9.532;2023-06-10T00:27:44;7.70;;;5.97;;
56267;SDS011;42175;46.930;9.532;2023-06-10T00:30:10;7.00;;;6.30;;
56267;SDS011;42175;46.930;9.532;2023-06-10T00:32:37;9.38;;;6.60;;
56267;SDS011;42175;46.930;9.532;2023-06-10T00:35:06;7.70;;;6.45;;
56267;SDS011;42175;46.930;9.532;2023-06-10T00:37:32;6.38;;;5.78;;
56267;SDS011;42175;46.930;9.532;2023-06-10T00:40:00;7.60;;;6.45;;
56267;SDS011;42175;46.930;9.532;2023-06-10T00:42:27;8.00;;;6.80;;
56267;SDS011;42175;46.930;9.532;2023-06-10T00:44:54;8.25;;;6.53;;
56267;SDS011;42175;46.930;9.532;2023-06-10T00:47:20;8.95;;;6.45;;
56267;SDS011;42175;46.930;9.532;2023-06-10T00:49:46;7.15;;;6.20;;
56267;SDS011;42175;46.930;9.532;2023-06-10T00:52:13;6.90;;;5.82;;
56267;SDS011;42175;46.930;9.532;2023-06-10T00:54:41;7.80;;;6.55;;
56267;SDS011;42175;46.930;9.532;2023-06-10T00:57:07;10.88;;;7.22;;
56267;SDS011;42175;46.930;9.532;2023-06-10T00:59:33;8.32;;;6.85;;
56267;SDS011;42175;46.930;9.532;2023-06-10T01:01:59;7.20;;;6.10;;
56267;SDS011;42175;46.930;9.532;2023-06-10T01:04:25;8.68;;;6.30;;
56267;SDS011;42175;46.930;9.532;2023-06-10T01:06:57;9.05;;;6.68;;
56267;SDS011;42175;46.930;9.532;2023-06-10T01:09:45;7.22;;;6.38;;
56267;SDS011;42175;46.930;9.532;2023-06-10T01:15:06;7.85;;;7.05;;
56267;SDS011;42175;46.930;9.532;2023-06-10T01:17:37;6.82;;;5.88;;
56267;SDS011;42175;46.930;9.532;2023-06-10T01:20:22;8.52;;;6.35;;
56267;SDS011;42175;46.930;9.532;2023-06-10T01:22:49;7.00;;;6.05;;
56267;SDS011;42175;46.930;9.532;2023-06-10T01:25:16;7.68;;;6.05;;
56267;SDS011;42175;46.930;9.532;2023-06-10T01:27:42;7.35;;;6.45;;
56267;SDS011;42175;46.930;9.532;2023-06-10T01:30:14;7.22;;;6.45;;
56267;SDS011;42175;46.930;9.532;2023-06-10T01:32:44;6.97;;;6.25;;
56267;SDS011;42175;46.930;9.532;2023-06-10T01:35:13;7.63;;;6.82;;
56267;SDS011;42175;46.930;9.532;2023-06-10T01:37:40;6.72;;;5.80;;
56267;SDS011;42175;46.930;9.532;2023-06-10T01:40:11;7.07;;;6.38;;
56267;SDS011;42175;46.930;9.532;2023-06-10T01:42:38;7.57;;;6.50;;
56267;SDS011;42175;46.930;9.532;2023-06-10T01:45:03;7.18;;;6.38;;
56267;SDS011;42175;46.930;9.532;2023-06-10T01:47:30;7.22;;;6.00;;
56267;SDS011;42175;46.930;9.532;2023-06-10T01:49:56;7.47;;;6.68;;
56267;SDS011;42175;46.930;9.532;2023-06-10T01:52:22;7.50;;;6.20;;
56267;SDS011;42175;46.930;9.532;2023-06-10T01:54:48;9.13;;;6.30;;
56267;SDS011;42175;46.930;9.532;2023-06-10T01:57:14;12.70;;;6.55;;
56267;SDS011;42175;46.930;9.532;2023-06-10T01:59:39;7.10;;;6.35;;
56267;SDS011;42175;46.930;9.532;2023-06-10T02:02:07;11.05;;;6.40;;
56267;SDS011;42175;46.930;9.532;2023-06-10T02:04:32;9.88;;;5.88;;
56267;SDS011;42175;46.930;9.532;2023-06-10T02:06:58;8.88;;;6.18;;
56267;SDS011;42175;46.930;9.532;2023-06-10T02:09:24;8.75;;;5.97;;
56267;SDS011;42175;46.930;9.532;2023-06-10T02:11:50;8.18;;;6.40;;
56267;SDS011;42175;46.930;9.532;2023-06-10T02:14:15;9.73;;;6.43;;
56267;SDS011;42175;46.930;9.532;2023-06-10T02:16:41;9.65;;;5.80;;
56267;SDS011;42175;46.930;9.532;2023-06-10T02:19:10;10.10;;;6.18;;
56267;SDS011;42175;46.930;9.532;2023-06-10T02:21:36;9.63;;;5.95;;
56267;SDS011;42175;46.930;9.532;2023-06-10T02:24:01;7.22;;;6.05;;
56267;SDS011;42175;46.930;9.532;2023-06-10T02:26:28;9.18;;;6.45;;
56267;SDS011;42175;46.930;9.532;2023-06-10T02:28:53;7.38;;;5.93;;
56267;SDS011;42175;46.930;9.532;2023-06-10T02:31:20;7.15;;;5.80;;
56267;SDS011;42175;46.930;9.532;2023-06-10T02:33:46;9.55;;;6.47;;
56267;SDS011;42175;46.930;9.532;2023-06-10T02:36:12;9.25;;;6.15;;
56267;SDS011;42175;46.930;9.532;2023-06-10T02:38:41;8.48;;;5.38;;
56267;SDS011;42175;46.930;9.532;2023-06-10T02:41:07;8.55;;;5.35;;
56267;SDS011;42175;46.930;9.532;2023-06-10T02:43:32;10.45;;;5.50;;
56267;SDS011;42175;46.930;9.532;2023-06-10T02:45:58;6.88;;;5.70;;
56267;SDS011;42175;46.930;9.532;2023-06-10T02:48:24;7.90;;;6.47;;
56267;SDS011;42175;46.930;9.532;2023-06-10T02:50:50;6.93;;;6.00;;
56267;SDS011;42175;46.930;9.532;2023-06-10T02:53:15;11.27;;;6.57;;
56267;SDS011;42175;46.930;9.532;2023-06-10T02:55:42;7.65;;;5.88;;
56267;SDS011;42175;46.930;9.532;2023-06-10T02:58:08;8.00;;;6.18;;
56267;SDS011;42175;46.930;9.532;2023-06-10T03:00:34;8.70;;;6.32;;
56267;SDS011;42175;46.930;9.532;2023-06-10T03:03:00;6.13;;;5.53;;
56267;SDS011;42175;46.930;9.532;2023-06-10T03:05:28;11.10;;;6.40;;
56267;SDS011;42175;46.930;9.532;2023-06-10T03:07:55;8.00;;;5.88;;
56267;SDS011;42175;46.930;9.532;2023-06-10T03:10:21;7.88;;;5.88;;
56267;SDS011;42175;46.930;9.532;2023-06-10T03:12:47;6.90;;;6.03;;
56267;SDS011;42175;46.930;9.532;2023-06-10T03:15:12;9.10;;;5.85;;
56267;SDS011;42175;46.930;9.532;2023-06-10T03:17:39;8.05;;;6.00;;
56267;SDS011;42175;46.930;9.532;2023-06-10T03:20:05;8.98;;;5.55;;
56267;SDS011;42175;46.930;9.532;2023-06-10T03:22:33;8.77;;;5.55;;
56267;SDS011;42175;46.930;9.532;2023-06-10T03:24:58;6.25;;;5.60;;
56267;SDS011;42175;46.930;9.532;2023-06-10T03:27:24;9.45;;;6.13;;
56267;SDS011;42175;46.930;9.532;2023-06-10T03:29:50;8.65;;;5.50;;
56267;SDS011;42175;46.930;9.532;2023-06-10T03:32:16;10.23;;;6.38;;
56267;SDS011;42175;46.930;9.532;2023-06-10T03:34:43;7.55;;;5.88;;
56267;SDS011;42175;46.930;9.532;2023-06-10T03:37:10;11.90;;;6.28;;
56267;SDS011;42175;46.930;9.532;2023-06-10T03:39:36;9.18;;;5.47;;
56267;SDS011;42175;46.930;9.532;2023-06-10T03:42:01;7.35;;;5.93;;
56267;SDS011;42175;46.930;9.532;2023-06-10T03:44:27;8.23;;;6.15;;
56267;SDS011;42175;46.930;9.532;2023-06-10T03:46:53;8.05;;;6.43;;
56267;SDS011;42175;46.930;9.532;2023-06-10T03:49:20;7.93;;;5.57;;
56267;SDS011;42175;46.930;9.532;2023-06-10T03:51:46;6.57;;;5.88;;
56267;SDS011;42175;46.930;9.532;2023-06-10T03:54:11;6.82;;;5.63;;
56267;SDS011;42175;46.930;9.532;2023-06-10T03:56:37;7.25;;;5.75;;
56267;SDS011;42175;46.930;9.532;2023-06-10T03:59:02;10.38;;;6.45;;
56267;SDS011;42175;46.930;9.532;2023-06-10T04:01:28;6.85;;;6.00;;
56267;SDS011;42175;46.930;9.532;2023-06-10T04:03:54;7.65;;;5.50;;
56267;SDS011;42175;46.930;9.532;2023-06-10T04:06:20;7.07;;;5.97;;
56267;SDS011;42175;46.930;9.532;2023-06-10T04:08:47;8.55;;;5.90;;
56267;SDS011;42175;46.930;9.532;2023-06-10T04:11:13;7.13;;;5.70;;
56267;SDS011;42175;46.930;9.532;2023-06-10T04:13:39;7.57;;;5.95;;
56267;SDS011;42175;46.930;9.532;2023-06-10T04:16:05;7.60;;;5.93;;
56267;SDS011;42175;46.930;9.532;2023-06-10T04:18:30;7.18;;;5.97;;
56267;SDS011;42175;46.930;9.532;2023-06-10T04:20:56;7.95;;;5.65;;
56267;SDS011;42175;46.930;9.532;2023-06-10T04:23:22;7.40;;;6.00;;
56267;SDS011;42175;46.930;9.532;2023-06-10T04:25:47;6.50;;;5.45;;
56267;SDS011;42175;46.930;9.532;2023-06-10T04:28:14;6.55;;;5.53;;
56267;SDS011;42175;46.930;9.532;2023-06-10T04:30:39;5.93;;;5.30;;
56267;SDS011;42175;46.930;9.532;2023-06-10T04:33:06;6.57;;;5.95;;
56267;SDS011;42175;46.930;9.532;2023-06-10T04:35:34;8.15;;;6.13;;
56267;SDS011;42175;46.930;9.532;2023-06-10T04:37:59;6.30;;;5.70;;
56267;SDS011;42175;46.930;9.532;2023-06-10T04:40:28;8.98;;;5.80;;
56267;SDS011;42175;46.930;9.532;2023-06-10T04:42:53;7.32;;;5.63;;
56267;SDS011;42175;46.930;9.532;2023-06-10T04:45:19;6.75;;;6.00;;
56267;SDS011;42175;46.930;9.532;2023-06-10T04:47:45;6.47;;;5.65;;
56267;SDS011;42175;46.930;9.532;2023-06-10T04:50:10;6.60;;;5.15;;
56267;SDS011;42175;46.930;9.532;2023-06-10T04:52:36;5.85;;;5.25;;
56267;SDS011;42175;46.930;9.532;2023-06-10T04:55:02;6.35;;;5.68;;
56267;SDS011;42175;46.930;9.532;2023-06-10T04:57:27;8.77;;;5.75;;
56267;SDS011;42175;46.930;9.532;2023-06-10T04:59:53;8.63;;;6.22;;
56267;SDS011;42175;46.930;9.532;2023-06-10T05:02:19;8.55;;;5.82;;
56267;SDS011;42175;46.930;9.532;2023-06-10T05:04:45;5.93;;;5.30;;
56267;SDS011;42175;46.930;9.532;2023-06-10T05:07:11;8.02;;;6.13;;
56267;SDS011;42175;46.930;9.532;2023-06-10T05:09:37;6.65;;;5.95;;
56267;SDS011;42175;46.930;9.532;2023-06-10T05:12:03;7.30;;;5.18;;
56267;SDS011;42175;46.930;9.532;2023-06-10T05:14:30;6.95;;;5.28;;
56267;SDS011;42175;46.930;9.532;2023-06-10T05:16:56;5.40;;;4.80;;
56267;SDS011;42175;46.930;9.532;2023-06-10T05:19:22;5.97;;;5.38;;
56267;SDS011;42175;46.930;9.532;2023-06-10T05:21:47;6.95;;;5.15;;
56267;SDS011;42175;46.930;9.532;2023-06-10T05:24:13;6.10;;;5.50;;
56267;SDS011;42175;46.930;9.532;2023-06-10T05:26:39;7.40;;;5.18;;
56267;SDS011;42175;46.930;9.532;2023-06-10T05:29:08;6.85;;;5.32;;
56267;SDS011;42175;46.930;9.532;2023-06-10T05:31:36;5.90;;;5.18;;
56267;SDS011;42175;46.930;9.532;2023-06-10T05:34:02;7.00;;;5.65;;
56267;SDS011;42175;46.930;9.532;2023-06-10T05:36:28;7.00;;;6.22;;
56267;SDS011;42175;46.930;9.532;2023-06-10T05:38:53;6.40;;;5.38;;
56267;SDS011;42175;46.930;9.532;2023-06-10T05:41:19;7.97;;;4.75;;
56267;SDS011;42175;46.930;9.532;2023-06-10T05:43:45;6.70;;;5.97;;
56267;SDS011;42175;46.930;9.532;2023-06-10T05:46:11;6.10;;;5.50;;
56267;SDS011;42175;46.930;9.532;2023-06-10T05:48:37;6.90;;;5.65;;
56267;SDS011;42175;46.930;9.532;2023-06-10T05:51:02;11.00;;;6.18;;
56267;SDS011;42175;46.930;9.532;2023-06-10T05:53:28;6.65;;;5.45;;
56267;SDS011;42175;46.930;9.532;2023-06-10T05:55:55;5.82;;;5.20;;
56267;SDS011;42175;46.930;9.532;2023-06-10T05:58:22;7.22;;;5.72;;
56267;SDS011;42175;46.930;9.532;2023-06-10T06:00:49;5.95;;;5.35;;
56267;SDS011;42175;46.930;9.532;2023-06-10T06:03:15;6.68;;;5.32;;
56267;SDS011;42175;46.930;9.532;2023-06-10T06:05:41;5.95;;;5.25;;
56267;SDS011;42175;46.930;9.532;2023-06-10T06:08:07;5.97;;;5.05;;
56267;SDS011;42175;46.930;9.532;2023-06-10T06:10:33;9.38;;;5.82;;
56267;SDS011;42175;46.930;9.532;2023-06-10T06:12:59;6.88;;;5.43;;
56267;SDS011;42175;46.930;9.532;2023-06-10T06:15:25;10.05;;;6.15;;
56267;SDS011;42175;46.930;9.532;2023-06-10T06:17:51;9.50;;;5.93;;
56267;SDS011;42175;46.930;9.532;2023-06-10T06:20:21;7.28;;;5.35;;
56267;SDS011;42175;46.930;9.532;2023-06-10T06:22:47;10.48;;;5.65;;
56267;SDS011;42175;46.930;9.532;2023-06-10T06:25:12;10.02;;;5.53;;
56267;SDS011;42175;46.930;9.532;2023-06-10T06:27:38;7.13;;;5.15;;
56267;SDS011;42175;46.930;9.532;2023-06-10T06:30:04;9.30;;;6.47;;
56267;SDS011;42175;46.930;9.532;2023-06-10T06:32:30;11.50;;;6.43;;
56267;SDS011;42175;46.930;9.532;2023-06-10T06:34:56;9.98;;;5.95;;
56267;SDS011;42175;46.930;9.532;2023-06-10T06:37:22;11.43;;;6.30;;
56267;SDS011;42175;46.930;9.532;2023-06-10T06:39:50;11.02;;;6.40;;
56267;SDS011;42175;46.930;9.532;2023-06-10T06:42:16;9.98;;;6.60;;
56267;SDS011;42175;46.930;9.532;2023-06-10T06:44:42;9.90;;;5.95;;
56267;SDS011;42175;46.930;9.532;2023-06-10T06:47:08;10.77;;;5.88;;
56267;SDS011;42175;46.930;9.532;2023-06-10T06:49:34;16.15;;;8.82;;
56267;SDS011;42175;46.930;9.532;2023-06-10T06:52:00;18.35;;;12.30;;
56267;SDS011;42175;46.930;9.532;2023-06-10T06:54:26;19.05;;;14.27;;
56267;SDS011;42175;46.930;9.532;2023-06-10T06:56:52;18.73;;;13.07;;
56267;SDS011;42175;46.930;9.532;2023-06-10T06:59:18;12.63;;;9.40;;
56267;SDS011;42175;46.930;9.532;2023-06-10T07:01:45;17.75;;;10.10;;
56267;SDS011;42175;46.930;9.532;2023-06-10T07:04:11;26.88;;;13.20;;
56267;SDS011;42175;46.930;9.532;2023-06-10T07:06:36;30.85;;;16.13;;
56267;SDS011;42175;46.930;9.532;2023-06-10T07:09:03;30.77;;;18.38;;
56267;SDS011;42175;46.930;9.532;2023-06-10T07:11:30;40.65;;;19.00;;
56267;SDS011;42175;46.930;9.532;2023-06-10T07:13:56;50.78;;;18.33;;
56267;SDS011;42175;46.930;9.532;2023-06-10T07:16:21;35.75;;;18.42;;
56267;SDS011;42175;46.930;9.532;2023-06-10T07:18:47;37.22;;;17.42;;
56267;SDS011;42175;46.930;9.532;2023-06-10T07:21:13;37.85;;;15.63;;
56267;SDS011;42175;46.930;9.532;2023-06-10T07:23:42;28.38;;;13.25;;
56267;SDS011;42175;46.930;9.532;2023-06-10T07:26:08;27.98;;;13.70;;
56267;SDS011;42175;46.930;9.532;2023-06-10T07:28:36;21.38;;;12.05;;
56267;SDS011;42175;46.930;9.532;2023-06-10T07:31:02;30.75;;;13.77;;
56267;SDS011;42175;46.930;9.532;2023-06-10T07:33:28;25.92;;;11.75;;
56267;SDS011;42175;46.930;9.532;2023-06-10T07:35:54;24.33;;;10.02;;
56267;SDS011;42175;46.930;9.532;2023-06-10T07:38:20;17.85;;;10.27;;
56267;SDS011;42175;46.930;9.532;2023-06-10T07:40:46;20.23;;;9.98;;
56267;SDS011;42175;46.930;9.532;2023-06-10T07:43:12;17.90;;;8.50;;
56267;SDS011;42175;46.930;9.532;2023-06-10T07:45:41;14.75;;;8.75;;
56267;SDS011;42175;46.930;9.532;2023-06-10T07:48:07;10.52;;;7.50;;
56267;SDS011;42175;46.930;9.532;2023-06-10T07:50:33;15.45;;;8.88;;
56267;SDS011;42175;46.930;9.532;2023-06-10T07:52:58;13.00;;;9.00;;
56267;SDS011;42175;46.930;9.532;2023-06-10T07:55:24;13.15;;;8.25;;
56267;SDS011;42175;46.930;9.532;2023-06-10T07:57:53;13.10;;;8.00;;
56267;SDS011;42175;46.930;9.532;2023-06-10T08:00:19;12.90;;;8.20;;
56267;SDS011;42175;46.930;9.532;2023-06-10T08:02:46;12.40;;;7.70;;
56267;SDS011;42175;46.930;9.532;2023-06-10T08:05:12;12.57;;;8.10;;
56267;SDS011;42175;46.930;9.532;2023-06-10T08:07:38;12.82;;;7.88;;
56267;SDS011;42175;46.930;9.532;2023-06-10T08:10:05;11.15;;;8.38;;
56267;SDS011;42175;46.930;9.532;2023-06-10T08:12:32;13.07;;;7.30;;
56267;SDS011;42175;46.930;9.532;2023-06-10T08:14:58;10.65;;;7.78;;
56267;SDS011;42175;46.930;9.532;2023-06-10T08:17:24;12.45;;;7.75;;
56267;SDS011;42175;46.930;9.532;2023-06-10T08:19:50;11.43;;;7.38;;
56267;SDS011;42175;46.930;9.532;2023-06-10T08:22:16;10.25;;;7.35;;
56267;SDS011;42175;46.930;9.532;2023-06-10T08:24:41;11.88;;;7.55;;
56267;SDS011;42175;46.930;9.532;2023-06-10T08:27:07;10.77;;;7.22;;
56267;SDS011;42175;46.930;9.532;2023-06-10T08:29:33;10.75;;;7.57;;
56267;SDS011;42175;46.930;9.532;2023-06-10T08:31:59;17.52;;;8.75;;
56267;SDS011;42175;46.930;9.532;2023-06-10T08:34:25;12.93;;;8.85;;
56267;SDS011;42175;46.930;9.532;2023-06-10T08:36:51;10.98;;;7.95;;
56267;SDS011;42175;46.930;9.532;2023-06-10T08:39:18;10.93;;;7.72;;
56267;SDS011;42175;46.930;9.532;2023-06-10T08:41:59;11.57;;;7.70;;
56267;SDS011;42175;46.930;9.532;2023-06-10T08:44:28;10.10;;;7.72;;
56267;SDS011;42175;46.930;9.532;2023-06-10T08:47:01;13.90;;;8.98;;
56267;SDS011;42175;46.930;9.532;2023-06-10T08:49:33;10.15;;;8.63;;
56267;SDS011;42175;46.930;9.532;2023-06-10T08:52:03;11.35;;;8.52;;
56267;SDS011;42175;46.930;9.532;2023-06-10T08:54:32;13.20;;;9.00;;
56267;SDS011;42175;46.930;9.532;2023-06-10T08:57:03;9.68;;;8.07;;
56267;SDS011;42175;46.930;9.532;2023-06-10T08:59:33;9.73;;;8.30;;
56267;SDS011;42175;46.930;9.532;2023-06-10T09:02:00;12.52;;;8.75;;
56267;SDS011;42175;46.930;9.532;2023-06-10T09:04:27;8.55;;;7.28;;
56267;SDS011;42175;46.930;9.532;2023-06-10T09:06:54;12.52;;;8.15;;
56267;SDS011;42175;46.930;9.532;2023-06-10T09:09:22;11.48;;;8.35;;
56267;SDS011;42175;46.930;9.532;2023-06-10T09:11:50;12.45;;;8.27;;
56267;SDS011;42175;46.930;9.532;2023-06-10T09:14:16;11.05;;;8.30;;
56267;SDS011;42175;46.930;9.532;2023-06-10T09:16:41;12.27;;;8.25;;
56267;SDS011;42175;46.930;9.532;2023-06-10T09:19:07;8.75;;;7.85;;
56267;SDS011;42175;46.930;9.532;2023-06-10T09:21:34;11.25;;;7.95;;
56267;SDS011;42175;46.930;9.532;2023-06-10T09:24:01;15.63;;;9.32;;
56267;SDS011;42175;46.930;9.532;2023-06-10T09:26:29;8.75;;;7.57;;
56267;SDS011;42175;46.930;9.532;2023-06-10T09:29:06;10.23;;;8.70;;
56267;SDS011;42175;46.930;9.532;2023-06-10T09:31:36;9.77;;;8.05;;
56267;SDS011;42175;46.930;9.532;2023-06-10T09:34:11;9.55;;;7.85;;
56267;SDS011;42175;46.930;9.532;2023-06-10T09:36:39;10.05;;;8.30;;
56267;SDS011;42175;46.930;9.532;2023-06-10T09:39:13;11.63;;;9.18;;
56267;SDS011;42175;46.930;9.532;2023-06-10T09:41:43;8.82;;;7.93;;
56267;SDS011;42175;46.930;9.532;2023-06-10T09:44:13;10.57;;;8.20;;
56267;SDS011;42175;46.930;9.532;2023-06-10T09:46:41;9.52;;;7.70;;
56267;SDS011;42175;46.930;9.532;2023-06-10T09:49:08;10.23;;;8.05;;
56267;SDS011;42175;46.930;9.532;2023-06-10T09:51:33;7.85;;;6.93;;
56267;SDS011;42175;46.930;9.532;2023-06-10T09:54:01;11.10;;;7.60;;
56267;SDS011;42175;46.930;9.532;2023-06-10T09:56:37;8.65;;;7.75;;
56267;SDS011;42175;46.930;9.532;2023-06-10T09:59:07;10.70;;;7.75;;
56267;SDS011;42175;46.930;9.532;2023-06-10T10:01:33;10.63;;;7.70;;
56267;SDS011;42175;46.930;9.532;2023-06-10T10:03:59;10.10;;;8.35;;
56267;SDS011;42175;46.930;9.532;2023-06-10T10:06:26;9.55;;;8.25;;
56267;SDS011;42175;46.930;9.532;2023-06-10T10:08:54;10.50;;;8.25;;
56267;SDS011;42175;46.930;9.532;2023-06-10T10:11:20;9.85;;;8.18;;
56267;SDS011;42175;46.930;9.532;2023-06-10T10:13:51;10.55;;;7.70;;
56267;SDS011;42175;46.930;9.532;2023-06-10T10:16:27;9.20;;;7.18;;
56267;SDS011;42175;46.930;9.532;2023-06-10T10:18:59;11.18;;;8.25;;
56267;SDS011;42175;46.930;9.532;2023-06-10T10:21:37;11.68;;;8.38;;
56267;SDS011;42175;46.930;9.532;2023-06-10T10:27:13;11.65;;;8.32;;
56267;SDS011;42175;46.930;9.532;2023-06-10T10:29:43;9.45;;;8.18;;
56267;SDS011;42175;46.930;9.532;2023-06-10T10:32:12;10.13;;;8.45;;
56267;SDS011;42175;46.930;9.532;2023-06-10T10:34:48;9.98;;;7.38;;
56267;SDS011;42175;46.930;9.532;2023-06-10T10:37:22;9.55;;;7.45;;
56267;SDS011;42175;46.930;9.532;2023-06-10T10:39:48;8.45;;;7.55;;
56267;SDS011;42175;46.930;9.532;2023-06-10T10:42:14;11.13;;;7.82;;
56267;SDS011;42175;46.930;9.532;2023-06-10T10:44:42;9.55;;;7.63;;
56267;SDS011;42175;46.930;9.532;2023-06-10T10:47:08;10.05;;;7.85;;
56267;SDS011;42175;46.930;9.532;2023-06-10T10:49:37;11.73;;;7.65;;
56267;SDS011;42175;46.930;9.532;2023-06-10T10:52:03;8.95;;;7.47;;
56267;SDS011;42175;46.930;9.532;2023-06-10T10:54:32;12.32;;;8.00;;
56267;SDS011;42175;46.930;9.532;2023-06-10T10:59:45;8.93;;;7.32;;
56267;SDS011;42175;46.930;9.532;2023-06-10T11:02:17;11.60;;;8.63;;
56267;SDS011;42175;46.930;9.532;2023-06-10T11:05:00;8.88;;;7.05;;
56267;SDS011;42175;46.930;9.532;2023-06-10T11:07:29;8.48;;;7.40;;
56267;SDS011;42175;46.930;9.532;2023-06-10T11:09:59;8.77;;;7.88;;
56267;SDS011;42175;46.930;9.532;2023-06-10T11:12:50;9.32;;;7.45;;
56267;SDS011;42175;46.930;9.532;2023-06-10T11:15:23;10.60;;;8.07;;
56267;SDS011;42175;46.930;9.532;2023-06-10T11:20:51;8.10;;;7.30;;
56267;SDS011;42175;46.930;9.532;2023-06-10T11:28:42;10.68;;;8.32;;
56267;SDS011;42175;46.930;9.532;2023-06-10T11:31:28;9.95;;;7.80;;
56267;SDS011;42175;46.930;9.532;2023-06-10T11:33:58;10.77;;;7.97;;
56267;SDS011;42175;46.930;9.532;2023-06-10T11:36:31;11.00;;;9.35;;
56267;SDS011;42175;46.930;9.532;2023-06-10T11:39:03;13.82;;;8.25;;
56267;SDS011;42175;46.930;9.532;2023-06-10T11:41:30;13.48;;;8.60;;
56267;SDS011;42175;46.930;9.532;2023-06-10T11:43:59;14.43;;;8.77;;
56267;SDS011;42175;46.930;9.532;2023-06-10T11:46:28;10.02;;;8.90;;
56267;SDS011;42175;46.930;9.532;2023-06-10T11:48:55;10.43;;;8.05;;
56267;SDS011;42175;46.930;9.532;2023-06-10T11:51:25;13.73;;;8.23;;
56267;SDS011;42175;46.930;9.532;2023-06-10T11:53:51;9.23;;;7.80;;
56267;SDS011;42175;46.930;9.532;2023-06-10T11:56:21;12.93;;;8.60;;
56267;SDS011;42175;46.930;9.532;2023-06-10T11:58:54;10.88;;;8.18;;
56267;SDS011;42175;46.930;9.532;2023-06-10T12:01:23;12.50;;;8.07;;
56267;SDS011;42175;46.930;9.532;2023-06-10T12:04:23;12.38;;;8.48;;
56267;SDS011;42175;46.930;9.532;2023-06-10T12:06:47;13.05;;;7.95;;
56267;SDS011;42175;46.930;9.532;2023-06-10T12:09:21;13.25;;;8.85;;
56267;SDS011;42175;46.930;9.532;2023-06-10T12:14:49;9.63;;;7.93;;
56267;SDS011;42175;46.930;9.532;2023-06-10T12:17:15;13.48;;;8.55;;
56267;SDS011;42175;46.930;9.532;2023-06-10T12:19:41;10.10;;;8.05;;
56267;SDS011;42175;46.930;9.532;2023-06-10T12:22:07;16.40;;;8.48;;
56267;SDS011;42175;46.930;9.532;2023-06-10T12:24:33;9.88;;;8.73;;
56267;SDS011;42175;46.930;9.532;2023-06-10T12:27:10;9.02;;;7.95;;
56267;SDS011;42175;46.930;9.532;2023-06-10T12:29:37;11.88;;;8.18;;
56267;SDS011;42175;46.930;9.532;2023-06-10T12:32:03;9.05;;;7.95;;
56267;SDS011;42175;46.930;9.532;2023-06-10T12:37:03;10.80;;;8.40;;
56267;SDS011;42175;46.930;9.532;2023-06-10T12:39:38;9.13;;;7.90;;
56267;SDS011;42175;46.930;9.532;2023-06-10T12:42:05;8.45;;;7.60;;
56267;SDS011;42175;46.930;9.532;2023-06-10T12:44:40;11.40;;;8.10;;
56267;SDS011;42175;46.930;9.532;2023-06-10T12:47:07;11.65;;;8.40;;
56267;SDS011;42175;46.930;9.532;2023-06-10T12:49:35;10.60;;;8.05;;
56267;SDS011;42175;46.930;9.532;2023-06-10T12:52:01;9.43;;;7.85;;
56267;SDS011;42175;46.930;9.532;2023-06-10T12:54:27;10.48;;;7.93;;
56267;SDS011;42175;46.930;9.532;2023-06-10T12:56:53;9.90;;;8.38;;
56267;SDS011;42175;46.930;9.532;2023-06-10T12:59:19;9.02;;;7.63;;
56267;SDS011;42175;46.930;9.532;2023-06-10T13:01:49;10.98;;;8.60;;
56267;SDS011;42175;46.930;9.532;2023-06-10T13:04:20;9.60;;;7.85;;
56267;SDS011;42175;46.930;9.532;2023-06-10T13:06:47;11.32;;;8.95;;
56267;SDS011;42175;46.930;9.532;2023-06-10T13:09:14;9.30;;;8.30;;
56267;SDS011;42175;46.930;9.532;2023-06-10T13:11:40;9.63;;;7.88;;
56267;SDS011;42175;46.930;9.532;2023-06-10T13:14:06;9.18;;;7.68;;
56267;SDS011;42175;46.930;9.532;2023-06-10T13:16:32;9.90;;;7.78;;
56267;SDS011;42175;46.930;9.532;2023-06-10T13:18:58;9.25;;;8.35;;
56267;SDS011;42175;46.930;9.532;2023-06-10T13:21:24;11.63;;;8.30;;
56267;SDS011;42175;46.930;9.532;2023-06-10T13:23:50;9.57;;;8.23;;
56267;SDS011;42175;46.930;9.532;2023-06-10T13:26:17;10.18;;;8.40;;
56267;SDS011;42175;46.930;9.532;2023-06-10T13:28:43;10.32;;;8.57;;
56267;SDS011;42175;46.930;9.532;2023-06-10T13:31:09;9.52;;;8.32;;
56267;SDS011;42175;46.930;9.532;2023-06-10T13:33:35;12.07;;;8.20;;
56267;SDS011;42175;46.930;9.532;2023-06-10T13:36:01;11.18;;;8.57;;
56267;SDS011;42175;46.930;9.532;2023-06-10T13:38:27;11.82;;;8.60;;
56267;SDS011;42175;46.930;9.532;2023-06-10T13:40:53;9.35;;;8.40;;
56267;SDS011;42175;46.930;9.532;2023-06-10T13:43:18;9.93;;;8.27;;
56267;SDS011;42175;46.930;9.532;2023-06-10T13:45:44;10.88;;;7.90;;
56267;SDS011;42175;46.930;9.532;2023-06-10T13:48:10;8.38;;;7.47;;
56267;SDS011;42175;46.930;9.532;2023-06-10T13:50:37;9.75;;;7.80;;
56267;SDS011;42175;46.930;9.532;2023-06-10T13:53:03;9.65;;;8.50;;
56267;SDS011;42175;46.930;9.532;2023-06-10T13:55:29;9.80;;;7.70;;
56267;SDS011;42175;46.930;9.532;2023-06-10T13:57:55;9.27;;;8.32;;
56267;SDS011;42175;46.930;9.532;2023-06-10T14:00:21;10.43;;;8.43;;
56267;SDS011;42175;46.930;9.532;2023-06-10T14:02:46;8.95;;;7.50;;
56267;SDS011;42175;46.930;9.532;2023-06-10T14:05:12;9.68;;;8.73;;
56267;SDS011;42175;46.930;9.532;2023-06-10T14:07:38;9.30;;;7.72;;
56267;SDS011;42175;46.930;9.532;2023-06-10T14:10:05;10.07;;;8.18;;
56267;SDS011;42175;46.930;9.532;2023-06-10T14:12:33;8.93;;;7.90;;
56267;SDS011;42175;46.930;9.532;2023-06-10T14:14:59;12.43;;;8.43;;
56267;SDS011;42175;46.930;9.532;2023-06-10T14:17:24;8.70;;;7.75;;
56267;SDS011;42175;46.930;9.532;2023-06-10T14:19:50;10.27;;;8.35;;
56267;SDS011;42175;46.930;9.532;2023-06-10T14:22:16;11.43;;;8.13;;
56267;SDS011;42175;46.930;9.532;2023-06-10T14:24:41;10.95;;;8.40;;
56267;SDS011;42175;46.930;9.532;2023-06-10T14:27:07;11.27;;;8.07;;
56267;SDS011;42175;46.930;9.532;2023-06-10T14:29:32;9.98;;;8.55;;
56267;SDS011;42175;46.930;9.532;2023-06-10T14:31:59;10.07;;;7.93;;
56267;SDS011;42175;46.930;9.532;2023-06-10T14:34:24;9.75;;;8.25;;
56267;SDS011;42175;46.930;9.532;2023-06-10T14:36:55;10.90;;;8.88;;
56267;SDS011;42175;46.930;9.532;2023-06-10T14:39:21;9.55;;;8.10;;
56267;SDS011;42175;46.930;9.532;2023-06-10T14:41:46;9.63;;;8.55;;
56267;SDS011;42175;46.930;9.532;2023-06-10T14:44:12;10.52;;;8.25;;
56267;SDS011;42175;46.930;9.532;2023-06-10T14:46:38;8.77;;;7.88;;
56267;SDS011;42175;46.930;9.532;2023-06-10T14:49:04;8.65;;;7.80;;
56267;SDS011;42175;46.930;9.532;2023-06-10T14:51:29;9.30;;;8.27;;
56267;SDS011;42175;46.930;9.532;2023-06-10T14:53:55;9.15;;;7.35;;
56267;SDS011;42175;46.930;9.532;2023-06-10T14:56:21;10.70;;;8.60;;
56267;SDS011;42175;46.930;9.532;2023-06-10T14:58:46;9.45;;;7.80;;
56267;SDS011;42175;46.930;9.532;2023-06-10T15:01:12;11.23;;;7.97;;
56267;SDS011;42175;46.930;9.532;2023-06-10T15:03:38;10.88;;;8.43;;